Terminal Aerodrome Forecast
Issued by NWS North Platte, NE

Home | Current Version | Previous Version | Graphics & Text | Print | Product List | Glossary On
Versions: 1 2 3 4 5 6 7 8 9 10 11 12 13 14 15 16
000
FTUS43 KLBF 211729
TAFVTN
TAF
KVTN 211729Z 2118/2218 VRB06KT P6SM FEW250
     FM211900 36010KT P6SM FEW250
     FM220600 09004KT P6SM FEW250
     FM221500 01013KT P6SM SCT100=

USA.gov is the U.S. government's official web portal to all federal, state and local government web resources and services.